X  Stänga Metar väderdata för luftfart        LGTS Thessaloniki Macedonia International
Temperatur
11°C Temperatur
11°C Daggpunkt
100% Fuktighet



Vind
6 MPH
9 KM/T
3 M/S
5 KTS



230°
SV
Nuvarande omständigheter

Mostly Cloudy Mestadels molnigt
Tryck 1010 (hPa) - 29.82 (inHg)
Synlighet 5 (mil) - 8 (km)
Flygplats
Flygplatskod LGTS

Plats: Thessaloniki Macedonia International
Distans: 85 (mi)

Metar:
METAR LGTS 012250Z 23005KT 8000 SCT004 BKN020 11/11 Q1010 NOSIG

Tid: 02-03-2024 00:50 EET